El Trebol, Argentina
Current Conditions -  °F | °C
As of 12:00 PM on Friday 31 Oct 2014 (Local Time) from SAAR Reporting Station
Clear Clear  
Wind Chill: 20°   Ceiling: Unl
Heat Index: 20°   Visibility: 6mi
Dew Point: 14°   Wind: 15mph
Humidity: 68%   Direction: 110°ESE
Pressure: 29.88"   Gusts: NA
Location:  32.2°S, 61.7°W
Report Text: SAAR 311500Z 11013KT CAVOK 20/14 Q1012
Loading
Personal Weather Stations






























Interactive Weather Map
Tropical Storm Tracking
New forecast layout! Learn more

10-Day Weather Forecast

Advertisements
Track Severe Weather on mobile